Time;durP1;ratioP1;P1;durP2;ratioP2;P2;SDS_P1;SDS_P2;PMS_P1;PMS_P2;Temp;Humidity;BMP_temperature;BMP_pressure;BME280_temperature;BME280_humidity;BME280_pressure;Samples;Min_cycle;Max_cycle;Signal;HPM_P1;HPM_P2
2023/12/31 00:00:32;;;;;;;6.00;1.63;;;7.80;99.90;;;;;;5074537;28;20072;-64
2023/12/31 00:02:58;;;;;;;6.18;1.60;;;8.00;99.90;;;;;;5076415;28;20586;-63
2023/12/31 00:05:23;;;;;;;4.68;1.60;;;8.00;99.90;;;;;;5076854;28;20104;-63
2023/12/31 00:07:49;;;;;;;5.28;1.65;;;7.90;99.90;;;;;;5083598;28;20103;-63
2023/12/31 00:10:14;;;;;;;6.30;1.92;;;7.80;99.90;;;;;;5080858;28;20036;-63
2023/12/31 00:12:40;;;;;;;6.03;1.70;;;8.00;99.90;;;;;;5075854;28;20039;-63
2023/12/31 00:15:06;;;;;;;5.60;1.70;;;8.00;99.90;;;;;;5081753;28;20507;-64
2023/12/31 00:17:31;;;;;;;4.82;1.40;;;8.10;99.90;;;;;;5077733;28;20035;-64
2023/12/31 00:19:57;;;;;;;4.75;1.42;;;8.00;99.90;;;;;;5076256;28;20028;-63
2023/12/31 00:22:23;;;;;;;4.15;1.58;;;8.10;99.90;;;;;;5087847;28;20196;-63
2023/12/31 00:24:54;;;;;;;6.93;2.25;;;8.30;99.90;;;;;;5075374;28;20123;-63
2023/12/31 00:27:19;;;;;;;9.05;2.20;;;8.20;99.90;;;;;;5084274;28;20379;-63
2023/12/31 00:29:45;;;;;;;6.10;2.20;;;8.20;99.90;;;;;;5079360;28;20021;-63
2023/12/31 00:32:11;;;;;;;5.88;1.98;;;8.10;99.90;;;;;;5082124;28;20115;-63
2023/12/31 00:34:37;;;;;;;6.35;2.20;;;8.10;99.90;;;;;;5082983;28;20031;-63
2023/12/31 00:37:03;;;;;;;7.55;1.80;;;8.20;99.90;;;;;;5079604;28;20039;-63
2023/12/31 00:39:29;;;;;;;5.60;2.00;;;8.20;99.90;;;;;;5074451;28;20629;-63
2023/12/31 00:41:55;;;;;;;6.15;2.15;;;8.10;99.90;;;;;;5080181;28;20041;-63
2023/12/31 00:44:20;;;;;;;5.13;2.00;;;8.10;99.90;;;;;;5082509;28;20052;-63
2023/12/31 00:46:46;;;;;;;6.97;2.53;;;8.10;99.90;;;;;;5074713;28;20097;-63
2023/12/31 00:49:12;;;;;;;8.07;2.22;;;8.10;99.90;;;;;;5078603;28;20111;-63
2023/12/31 00:51:38;;;;;;;9.52;2.70;;;8.10;99.90;;;;;;5084744;28;20112;-63
2023/12/31 00:54:03;;;;;;;5.28;2.15;;;8.00;99.90;;;;;;5091888;28;20081;-63
2023/12/31 00:56:29;;;;;;;7.78;2.40;;;8.00;99.90;;;;;;5078943;28;20028;-63
2023/12/31 00:58:55;;;;;;;7.05;2.60;;;8.20;99.90;;;;;;5083446;28;20056;-63
2023/12/31 01:01:20;;;;;;;7.20;2.97;;;8.20;99.90;;;;;;5082836;28;20051;-63
2023/12/31 01:03:46;;;;;;;8.38;2.55;;;8.20;99.90;;;;;;5078164;28;20035;-63
2023/12/31 01:06:12;;;;;;;8.77;2.60;;;8.20;99.90;;;;;;5085381;28;20103;-63
2023/12/31 01:08:38;;;;;;;8.18;2.65;;;8.20;99.90;;;;;;5081024;28;20158;-64
2023/12/31 01:11:03;;;;;;;7.95;2.88;;;8.20;99.90;;;;;;5082284;28;20091;-63
2023/12/31 01:13:30;;;;;;;6.53;2.38;;;8.10;99.90;;;;;;5081471;28;20464;-63
2023/12/31 01:15:56;;;;;;;6.35;2.38;;;8.00;99.90;;;;;;5082230;28;20028;-63
2023/12/31 01:18:21;;;;;;;8.00;2.60;;;8.00;99.90;;;;;;5081471;28;20038;-63
2023/12/31 01:20:47;;;;;;;6.65;2.25;;;8.00;99.90;;;;;;5078037;28;20056;-64
2023/12/31 01:23:12;;;;;;;9.35;3.05;;;8.00;99.90;;;;;;5082819;28;20025;-63
2023/12/31 01:25:39;;;;;;;6.18;2.40;;;8.00;99.90;;;;;;5087196;28;20442;-63
2023/12/31 01:28:05;;;;;;;6.35;2.90;;;8.10;99.90;;;;;;5075808;28;20025;-63
2023/12/31 01:30:30;;;;;;;8.63;2.95;;;8.10;99.90;;;;;;5084551;28;20410;-63
2023/12/31 01:32:56;;;;;;;8.45;2.75;;;8.20;99.90;;;;;;5079659;28;20028;-63
2023/12/31 01:35:22;;;;;;;7.03;2.80;;;8.30;99.90;;;;;;5077218;28;20024;-63
2023/12/31 01:37:47;;;;;;;6.47;2.72;;;8.30;99.90;;;;;;5084761;28;20024;-63
2023/12/31 01:40:13;;;;;;;6.50;2.40;;;8.20;99.90;;;;;;5081097;28;20380;-63
2023/12/31 01:42:39;;;;;;;7.32;2.42;;;8.20;99.90;;;;;;5081649;28;20035;-62
2023/12/31 01:45:05;;;;;;;9.05;2.80;;;8.20;99.90;;;;;;5078753;28;20096;-63
2023/12/31 01:47:32;;;;;;;7.18;2.40;;;8.10;99.90;;;;;;5078919;28;20029;-62
2023/12/31 01:49:59;;;;;;;8.43;2.88;;;8.10;99.90;;;;;;5081293;28;20136;-62
2023/12/31 01:52:25;;;;;;;5.70;2.00;;;8.20;99.90;;;;;;5079953;28;20589;-62
2023/12/31 01:54:54;;;;;;;5.20;1.88;;;8.20;99.90;;;;;;5078661;28;20100;-62
2023/12/31 01:57:28;;;;;;;8.00;2.63;;;8.30;99.90;;;;;;5080260;28;20028;-62
2023/12/31 01:59:55;;;;;;;6.50;2.50;;;8.20;99.90;;;;;;5080341;28;20045;-62
2023/12/31 02:02:22;;;;;;;6.15;2.60;;;8.10;99.90;;;;;;5078796;28;20043;-62
2023/12/31 02:04:48;;;;;;;5.80;2.25;;;8.10;99.90;;;;;;5078171;28;20027;-62
2023/12/31 02:07:15;;;;;;;6.35;2.17;;;8.10;99.90;;;;;;5079993;28;20083;-62
2023/12/31 02:09:41;;;;;;;6.10;2.28;;;8.10;99.90;;;;;;5080692;28;20043;-62
2023/12/31 02:12:07;;;;;;;7.15;2.60;;;8.20;99.90;;;;;;5078489;28;20016;-63
2023/12/31 02:14:33;;;;;;;7.38;2.20;;;8.10;99.90;;;;;;5078435;28;20024;-63
2023/12/31 02:16:58;;;;;;;6.65;2.20;;;8.10;99.90;;;;;;5081156;28;20450;-63
2023/12/31 02:19:24;;;;;;;5.50;1.85;;;8.00;99.90;;;;;;5079452;28;20024;-63
2023/12/31 02:21:50;;;;;;;5.78;1.88;;;8.10;99.90;;;;;;5078536;28;20468;-62
2023/12/31 02:24:19;;;;;;;7.60;2.70;;;8.00;99.90;;;;;;5077523;28;20029;-63
2023/12/31 02:26:44;;;;;;;6.95;2.40;;;8.00;99.90;;;;;;5079705;28;20031;-63
2023/12/31 02:29:10;;;;;;;5.70;2.10;;;8.00;99.90;;;;;;5078835;28;20025;-63
2023/12/31 02:31:36;;;;;;;4.32;1.58;;;8.00;99.90;;;;;;5078683;28;20032;-62
2023/12/31 02:34:02;;;;;;;4.93;1.83;;;8.00;99.90;;;;;;5077970;28;20025;-62
2023/12/31 02:36:27;;;;;;;6.68;2.00;;;8.10;99.90;;;;;;5081703;28;20073;-62
2023/12/31 02:38:53;;;;;;;4.55;1.65;;;8.20;99.90;;;;;;5076189;28;20980;-62
2023/12/31 02:41:19;;;;;;;5.78;1.90;;;8.20;99.90;;;;;;5079701;28;20099;-63
2023/12/31 02:43:44;;;;;;;5.90;2.08;;;8.30;99.90;;;;;;5078920;28;20032;-63
2023/12/31 02:46:10;;;;;;;5.82;1.73;;;8.30;99.90;;;;;;5080462;28;20059;-63
2023/12/31 02:48:36;;;;;;;4.90;1.73;;;8.30;99.90;;;;;;5079924;28;20073;-63
2023/12/31 02:51:01;;;;;;;11.85;2.45;;;8.20;99.90;;;;;;5078848;28;20449;-63
2023/12/31 02:53:27;;;;;;;5.97;2.20;;;8.20;99.90;;;;;;5077301;28;20036;-63
2023/12/31 02:55:52;;;;;;;5.68;2.10;;;8.20;99.90;;;;;;5075901;28;20526;-63
2023/12/31 02:58:18;;;;;;;8.55;2.20;;;8.20;99.90;;;;;;5076644;28;20428;-63
2023/12/31 03:00:44;;;;;;;5.95;2.00;;;8.20;99.90;;;;;;5073422;28;20060;-63
2023/12/31 03:03:09;;;;;;;8.90;2.63;;;8.20;99.90;;;;;;5081055;28;20601;-63
2023/12/31 03:05:35;;;;;;;5.65;2.03;;;8.20;99.90;;;;;;5079806;28;20022;-63
2023/12/31 03:08:00;;;;;;;5.38;1.85;;;8.20;99.90;;;;;;5076769;28;20020;-63
2023/12/31 03:10:27;;;;;;;5.65;1.92;;;8.20;99.90;;;;;;5075929;28;20050;-63
2023/12/31 03:12:53;;;;;;;7.90;2.10;;;8.10;99.90;;;;;;5079737;28;20430;-63
2023/12/31 03:15:21;;;;;;;6.47;1.80;;;8.10;99.90;;;;;;5077763;28;20059;-63
2023/12/31 03:17:47;;;;;;;5.38;1.80;;;8.10;99.90;;;;;;5078722;28;20031;-63
2023/12/31 03:20:12;;;;;;;5.97;1.95;;;8.10;99.90;;;;;;5076555;28;20025;-63
2023/12/31 03:22:38;;;;;;;6.18;2.00;;;8.30;99.90;;;;;;5075569;28;20145;-63
2023/12/31 03:25:05;;;;;;;7.43;2.30;;;8.10;99.90;;;;;;5076850;28;20460;-63
2023/12/31 03:27:30;;;;;;;6.88;2.38;;;8.10;99.90;;;;;;5080507;28;20025;-63
2023/12/31 03:29:57;;;;;;;5.00;1.83;;;8.00;99.90;;;;;;5076613;28;20027;-63
2023/12/31 03:32:22;;;;;;;5.95;2.17;;;8.00;99.90;;;;;;5075554;28;20025;-63
2023/12/31 03:34:48;;;;;;;5.93;2.20;;;8.00;99.90;;;;;;5079057;28;20021;-64
2023/12/31 03:37:14;;;;;;;6.10;2.10;;;8.00;99.90;;;;;;5080525;28;20025;-63
2023/12/31 03:39:41;;;;;;;8.77;2.72;;;8.10;99.90;;;;;;5078706;28;20059;-63
2023/12/31 03:42:07;;;;;;;8.55;2.35;;;8.10;99.90;;;;;;5077419;28;20040;-63
2023/12/31 03:44:32;;;;;;;6.07;2.15;;;8.00;99.90;;;;;;5079630;28;20059;-63
2023/12/31 03:46:58;;;;;;;6.85;2.50;;;8.10;99.90;;;;;;5071931;28;20021;-64
2023/12/31 03:49:23;;;;;;;5.18;1.88;;;8.00;99.90;;;;;;5073165;28;20025;-63
2023/12/31 03:51:49;;;;;;;6.10;2.42;;;7.90;99.90;;;;;;5080055;28;20033;-63
2023/12/31 03:54:15;;;;;;;6.80;2.08;;;7.90;99.90;;;;;;5080215;28;20029;-63
2023/12/31 03:56:40;;;;;;;6.13;2.17;;;7.90;99.90;;;;;;5082162;28;20098;-63
2023/12/31 03:59:06;;;;;;;6.82;2.40;;;7.90;99.90;;;;;;5082017;28;20034;-63
2023/12/31 04:01:31;;;;;;;7.38;2.35;;;7.90;99.90;;;;;;5082303;28;20052;-63
2023/12/31 04:03:58;;;;;;;6.40;2.38;;;7.90;99.90;;;;;;5080370;28;20118;-63
2023/12/31 04:06:23;;;;;;;6.07;2.13;;;7.90;99.90;;;;;;5084409;28;20663;-63
2023/12/31 04:08:49;;;;;;;6.55;2.65;;;8.00;99.90;;;;;;5083880;28;20024;-63
2023/12/31 04:11:14;;;;;;;7.05;2.50;;;7.80;99.90;;;;;;5081660;28;20039;-63
2023/12/31 04:13:41;;;;;;;6.00;2.15;;;7.90;99.90;;;;;;5080718;28;20510;-63
2023/12/31 04:16:08;;;;;;;6.07;2.08;;;8.00;99.90;;;;;;5079979;28;20024;-63
2023/12/31 04:18:34;;;;;;;7.25;2.25;;;8.10;99.90;;;;;;5081658;28;20039;-63
2023/12/31 04:21:00;;;;;;;4.97;1.85;;;8.10;99.90;;;;;;5081473;28;20028;-63
2023/12/31 04:23:26;;;;;;;6.93;2.25;;;8.10;99.90;;;;;;5080561;28;20707;-63
2023/12/31 04:25:51;;;;;;;7.03;2.40;;;8.10;99.90;;;;;;5080277;28;20024;-63
2023/12/31 04:28:17;;;;;;;5.90;2.05;;;8.10;99.90;;;;;;5079779;28;20028;-63
2023/12/31 04:30:43;;;;;;;5.70;2.15;;;8.10;99.90;;;;;;5078401;28;20020;-63
2023/12/31 04:33:09;;;;;;;6.38;2.08;;;8.10;99.90;;;;;;5088190;28;20043;-63
2023/12/31 04:35:34;;;;;;;6.13;2.25;;;8.10;99.90;;;;;;5081710;28;20052;-63
2023/12/31 04:38:00;;;;;;;5.35;1.95;;;8.10;99.90;;;;;;5083326;28;20029;-63
2023/12/31 04:40:26;;;;;;;5.63;1.98;;;8.00;99.90;;;;;;5083404;28;20024;-63
2023/12/31 04:42:51;;;;;;;6.43;2.10;;;8.10;99.90;;;;;;5086551;28;20024;-63
2023/12/31 04:45:17;;;;;;;5.47;1.85;;;8.20;99.90;;;;;;5080079;28;20642;-63
2023/12/31 04:47:42;;;;;;;12.25;2.20;;;8.10;99.90;;;;;;5081212;28;20032;-63
2023/12/31 04:50:08;;;;;;;6.03;2.22;;;8.20;99.90;;;;;;5079609;28;20024;-63
2023/12/31 04:52:34;;;;;;;5.22;1.90;;;8.20;99.90;;;;;;5081415;28;20040;-63
2023/12/31 04:54:59;;;;;;;5.90;1.80;;;8.10;99.90;;;;;;5078623;28;20482;-63
2023/12/31 04:57:25;;;;;;;4.90;1.80;;;8.10;99.90;;;;;;5082368;28;20016;-63
2023/12/31 04:59:51;;;;;;;5.20;1.70;;;8.00;99.90;;;;;;5082663;28;20105;-63
2023/12/31 05:02:17;;;;;;;6.13;2.05;;;8.00;99.90;;;;;;5077335;28;20021;-63
2023/12/31 05:04:43;;;;;;;8.93;2.08;;;8.00;99.90;;;;;;5082505;28;20056;-63
2023/12/31 05:07:09;;;;;;;6.53;1.88;;;8.00;99.90;;;;;;5080316;28;20016;-63
2023/12/31 05:09:35;;;;;;;4.57;1.65;;;8.00;99.90;;;;;;5081538;28;20025;-63
2023/12/31 05:12:01;;;;;;;5.93;1.75;;;8.10;99.90;;;;;;5082822;28;20031;-63
2023/12/31 05:14:27;;;;;;;6.15;1.80;;;8.30;99.90;;;;;;5084442;28;20020;-64
2023/12/31 05:16:52;;;;;;;5.85;2.08;;;8.30;99.90;;;;;;5087395;28;20077;-64
2023/12/31 05:19:18;;;;;;;4.07;1.50;;;8.40;99.90;;;;;;5081033;28;20109;-63
2023/12/31 05:21:43;;;;;;;4.45;1.52;;;8.40;99.90;;;;;;5084900;28;20466;-63
2023/12/31 05:24:09;;;;;;;4.90;1.60;;;8.50;99.90;;;;;;5084260;28;20069;-63
2023/12/31 05:26:34;;;;;;;3.90;1.45;;;8.60;99.90;;;;;;5080598;28;20031;-63
2023/12/31 05:29:00;;;;;;;4.78;1.70;;;8.70;99.90;;;;;;5082339;28;20043;-63
2023/12/31 05:31:26;;;;;;;5.03;1.77;;;8.80;99.90;;;;;;5083441;28;20043;-64
2023/12/31 05:33:52;;;;;;;4.38;1.60;;;8.80;99.90;;;;;;5083728;28;20035;-64
2023/12/31 05:36:17;;;;;;;5.03;1.65;;;8.80;99.90;;;;;;5080299;28;20032;-64
2023/12/31 05:38:43;;;;;;;3.92;1.50;;;8.80;99.90;;;;;;5091983;28;20502;-64
2023/12/31 05:41:09;;;;;;;6.60;1.58;;;8.80;99.90;;;;;;5084110;28;20030;-64
2023/12/31 05:43:34;;;;;;;4.82;1.60;;;8.80;99.90;;;;;;5081984;28;20081;-64
2023/12/31 05:46:01;;;;;;;5.82;1.90;;;8.90;99.90;;;;;;5081131;28;20039;-64
2023/12/31 05:48:27;;;;;;;4.07;1.48;;;8.90;99.90;;;;;;5080804;28;20024;-64
2023/12/31 05:50:52;;;;;;;4.18;1.50;;;9.00;99.90;;;;;;5090072;28;20455;-64
2023/12/31 05:53:18;;;;;;;5.78;1.73;;;9.00;99.90;;;;;;5076585;28;20028;-64
2023/12/31 05:55:44;;;;;;;6.40;1.52;;;9.00;99.90;;;;;;5084206;28;20028;-64
2023/12/31 05:58:10;;;;;;;4.55;1.67;;;9.00;99.90;;;;;;5079500;28;20063;-64
2023/12/31 06:00:36;;;;;;;3.17;1.38;;;9.20;99.90;;;;;;5080230;28;20059;-64
2023/12/31 06:03:01;;;;;;;5.32;1.67;;;9.10;99.90;;;;;;5082024;28;20047;-64
2023/12/31 06:05:27;;;;;;;5.10;1.80;;;9.10;99.90;;;;;;5080742;28;20067;-64
2023/12/31 06:07:52;;;;;;;4.63;1.70;;;9.10;99.90;;;;;;5080988;28;20104;-63
2023/12/31 06:10:18;;;;;;;4.43;1.70;;;9.20;99.90;;;;;;5087586;28;20016;-63
2023/12/31 06:12:44;;;;;;;6.78;2.05;;;9.20;99.90;;;;;;5084281;28;20032;-64
2023/12/31 06:15:11;;;;;;;12.93;2.38;;;9.20;99.90;;;;;;5083004;28;20031;-64
2023/12/31 06:17:37;;;;;;;5.13;1.70;;;9.20;99.90;;;;;;5087831;28;20020;-64
2023/12/31 06:20:06;;;;;;;4.90;1.48;;;9.20;99.90;;;;;;5082398;28;20060;-63
2023/12/31 06:22:32;;;;;;;5.60;1.95;;;9.20;99.90;;;;;;5081844;28;20021;-63
2023/12/31 06:24:58;;;;;;;4.72;1.52;;;9.10;99.90;;;;;;5080354;28;20052;-63
2023/12/31 06:27:24;;;;;;;4.97;1.60;;;9.30;99.90;;;;;;5079318;28;20036;-63
2023/12/31 06:29:50;;;;;;;5.88;1.85;;;9.20;99.90;;;;;;5079724;28;20533;-64
2023/12/31 06:32:20;;;;;;;5.15;1.90;;;9.20;99.90;;;;;;5073609;28;20029;-64
2023/12/31 06:34:46;;;;;;;5.80;1.80;;;9.20;99.90;;;;;;5080575;28;20024;-63
2023/12/31 06:37:12;;;;;;;4.72;1.58;;;9.20;99.90;;;;;;5077203;28;20043;-63
2023/12/31 06:39:37;;;;;;;6.32;1.92;;;9.20;99.90;;;;;;5080540;28;20095;-63
2023/12/31 06:42:03;;;;;;;3.80;1.45;;;9.20;99.90;;;;;;5079167;28;20028;-63
2023/12/31 06:44:30;;;;;;;5.55;1.63;;;9.20;99.90;;;;;;5076792;28;20024;-63
2023/12/31 06:46:56;;;;;;;6.55;1.90;;;9.20;99.90;;;;;;5078494;28;20020;-63
2023/12/31 06:49:22;;;;;;;5.60;1.70;;;9.30;99.90;;;;;;5081773;28;20043;-63
2023/12/31 06:51:47;;;;;;;5.30;1.63;;;9.20;99.90;;;;;;5076705;28;20456;-63
2023/12/31 06:54:13;;;;;;;4.88;1.80;;;9.20;99.90;;;;;;5080190;28;20040;-63
2023/12/31 06:56:39;;;;;;;4.72;1.70;;;9.20;99.90;;;;;;5076830;28;20533;-63
2023/12/31 06:59:04;;;;;;;7.70;1.63;;;9.30;99.90;;;;;;5076698;28;20024;-63
2023/12/31 07:01:30;;;;;;;4.88;1.80;;;9.30;99.90;;;;;;5076378;28;20047;-63
2023/12/31 07:03:56;;;;;;;7.03;1.88;;;9.20;99.90;;;;;;5078366;28;20039;-63
2023/12/31 07:06:21;;;;;;;5.95;1.98;;;9.30;99.90;;;;;;5079359;28;20805;-63
2023/12/31 07:08:47;;;;;;;4.65;1.60;;;9.10;99.90;;;;;;5078433;28;20016;-63
2023/12/31 07:11:14;;;;;;;5.25;1.77;;;9.20;99.90;;;;;;5076790;28;20503;-63
2023/12/31 07:13:40;;;;;;;5.13;1.50;;;9.20;99.90;;;;;;5080452;28;20024;-63
2023/12/31 07:16:06;;;;;;;5.85;1.88;;;9.20;99.90;;;;;;5076317;28;20055;-63
2023/12/31 07:18:32;;;;;;;5.85;1.58;;;9.10;99.90;;;;;;5079705;28;20419;-63
2023/12/31 07:20:58;;;;;;;6.35;1.80;;;9.00;99.90;;;;;;5075823;28;20107;-64
2023/12/31 07:23:24;;;;;;;4.85;1.55;;;9.00;99.90;;;;;;5077179;28;20570;-63
2023/12/31 07:25:49;;;;;;;4.97;1.67;;;9.10;99.90;;;;;;5083720;28;20192;-63
2023/12/31 07:28:15;;;;;;;5.80;1.80;;;9.10;99.90;;;;;;5084491;28;20022;-63
2023/12/31 07:30:41;;;;;;;5.72;1.83;;;9.10;99.90;;;;;;5079300;28;20020;-63
2023/12/31 07:33:06;;;;;;;5.00;1.80;;;9.20;99.90;;;;;;5084437;28;20039;-64
2023/12/31 07:35:36;;;;;;;5.50;1.90;;;9.20;99.90;;;;;;5078800;28;20029;-64
2023/12/31 07:38:07;;;;;;;5.00;1.52;;;9.20;99.90;;;;;;5083292;28;20153;-63
2023/12/31 07:40:33;;;;;;;6.93;1.75;;;9.20;99.90;;;;;;5088532;28;20024;-64
2023/12/31 07:42:58;;;;;;;4.47;1.40;;;9.30;99.90;;;;;;5083800;28;20028;-64
2023/12/31 07:45:25;;;;;;;6.50;1.88;;;9.30;99.90;;;;;;5084763;28;20024;-64
2023/12/31 07:47:52;;;;;;;7.10;1.95;;;9.30;99.90;;;;;;5075969;28;20107;-64
2023/12/31 07:50:18;;;;;;;5.20;1.73;;;9.20;99.90;;;;;;5086273;28;20429;-64
2023/12/31 07:52:44;;;;;;;5.63;2.00;;;9.20;99.90;;;;;;5080473;28;20033;-63
2023/12/31 07:55:10;;;;;;;6.00;2.10;;;9.20;99.90;;;;;;5085392;28;20042;-63
2023/12/31 07:57:35;;;;;;;4.07;1.65;;;9.20;99.90;;;;;;5082927;28;20027;-64
2023/12/31 08:00:05;;;;;;;4.00;1.67;;;9.30;99.90;;;;;;5083560;28;20056;-64
2023/12/31 08:02:31;;;;;;;4.37;1.70;;;9.30;99.90;;;;;;5080175;28;20040;-64
2023/12/31 08:04:56;;;;;;;3.60;1.50;;;9.40;99.90;;;;;;5086203;28;20697;-64
2023/12/31 08:07:22;;;;;;;5.85;1.95;;;9.40;99.90;;;;;;5085017;28;20017;-64
2023/12/31 08:09:47;;;;;;;4.95;1.70;;;9.30;99.90;;;;;;5086559;28;20103;-64
2023/12/31 08:12:13;;;;;;;6.32;1.73;;;9.30;99.90;;;;;;5083518;28;20020;-65
2023/12/31 08:14:39;;;;;;;7.13;2.38;;;9.30;99.90;;;;;;5087116;28;20727;-63
2023/12/31 08:17:12;;;;;;;5.15;1.92;;;9.40;99.90;;;;;;5087520;28;20070;-68
2023/12/31 08:19:37;;;;;;;4.95;1.63;;;9.50;99.90;;;;;;5080582;28;20031;-68
2023/12/31 08:22:03;;;;;;;5.05;1.90;;;9.50;99.90;;;;;;5073356;28;20099;-68
2023/12/31 08:24:29;;;;;;;5.30;1.80;;;9.40;99.90;;;;;;5087194;28;20020;-68
2023/12/31 08:26:55;;;;;;;5.32;1.80;;;9.40;99.90;;;;;;5086735;28;20050;-68
2023/12/31 08:29:21;;;;;;;7.15;2.00;;;9.30;99.90;;;;;;5085722;28;20020;-68
2023/12/31 08:31:52;;;;;;;6.32;2.08;;;9.30;99.90;;;;;;5083471;28;20031;-68
2023/12/31 08:34:18;;;;;;;6.20;2.15;;;9.30;99.90;;;;;;5081468;28;20059;-68
2023/12/31 08:36:44;;;;;;;4.85;1.83;;;9.30;99.90;;;;;;5080535;28;20028;-68
2023/12/31 08:39:10;;;;;;;7.63;2.58;;;9.30;99.90;;;;;;5081468;28;20546;-68
2023/12/31 08:41:35;;;;;;;5.85;2.20;;;9.30;99.90;;;;;;5086093;28;20067;-68
2023/12/31 08:44:01;;;;;;;4.78;1.80;;;9.30;99.90;;;;;;5083706;28;20056;-68
2023/12/31 08:46:27;;;;;;;5.90;1.98;;;9.30;99.90;;;;;;5083937;28;20046;-68
2023/12/31 08:48:52;;;;;;;6.13;1.95;;;9.30;99.90;;;;;;5082800;28;20838;-67
2023/12/31 08:51:19;;;;;;;6.78;1.88;;;9.30;99.90;;;;;;5079036;28;20020;-67
2023/12/31 08:53:44;;;;;;;5.70;2.15;;;9.30;99.90;;;;;;5073773;28;20032;-69
2023/12/31 08:56:10;;;;;;;6.18;2.20;;;9.40;99.90;;;;;;5078426;28;20028;-68
2023/12/31 08:58:35;;;;;;;5.00;1.83;;;9.30;99.90;;;;;;5075892;28;20028;-68
2023/12/31 09:01:02;;;;;;;6.63;1.80;;;9.30;99.90;;;;;;5072211;28;20063;-68
2023/12/31 09:03:28;;;;;;;7.95;2.28;;;9.30;99.90;;;;;;5070473;28;20024;-68
2023/12/31 09:05:53;;;;;;;7.07;2.22;;;9.40;99.90;;;;;;5076883;28;20020;-68
2023/12/31 09:08:19;;;;;;;6.05;2.08;;;9.40;99.90;;;;;;5075168;28;20020;-68
2023/12/31 09:10:45;;;;;;;7.47;2.30;;;9.40;99.90;;;;;;5071626;28;20024;-68
2023/12/31 09:13:11;;;;;;;5.88;1.98;;;9.40;99.90;;;;;;5076501;28;20067;-68
2023/12/31 09:15:37;;;;;;;6.35;2.10;;;9.50;99.90;;;;;;5081011;28;20048;-68
2023/12/31 09:18:03;;;;;;;4.68;1.60;;;9.50;99.90;;;;;;5072451;28;20363;-68
2023/12/31 09:20:29;;;;;;;9.20;2.20;;;9.50;99.90;;;;;;5078722;28;20020;-68
2023/12/31 09:22:55;;;;;;;6.00;2.13;;;9.50;99.90;;;;;;5078599;28;20553;-68
2023/12/31 09:25:20;;;;;;;6.22;2.20;;;9.50;99.90;;;;;;5067601;28;20650;-68
2023/12/31 09:27:47;;;;;;;6.57;2.65;;;9.50;99.90;;;;;;5078894;28;20111;-68
2023/12/31 09:30:13;;;;;;;5.50;2.00;;;9.40;99.90;;;;;;5058193;28;20067;-68
2023/12/31 09:32:38;;;;;;;6.88;2.33;;;9.30;99.90;;;;;;5069665;28;20052;-68
2023/12/31 09:35:06;;;;;;;6.22;2.30;;;9.20;99.90;;;;;;5080369;28;20028;-68
2023/12/31 09:37:31;;;;;;;6.68;2.35;;;9.20;99.90;;;;;;5077171;28;20043;-68
2023/12/31 09:39:57;;;;;;;6.00;2.30;;;9.20;99.90;;;;;;5081510;28;20032;-68
2023/12/31 09:42:49;;;;;;;7.70;3.05;;;9.20;99.90;;;;;;5078188;28;20024;-68
2023/12/31 09:45:23;;;;;;;9.20;2.95;;;9.30;99.90;;;;;;5059580;28;20068;-68
2023/12/31 09:47:54;;;;;;;7.07;2.38;;;9.30;99.90;;;;;;5078463;28;20013;-68
2023/12/31 09:50:23;;;;;;;5.53;2.30;;;9.30;99.90;;;;;;5068788;28;20073;-68
2023/12/31 09:52:50;;;;;;;6.18;2.05;;;9.40;99.90;;;;;;5058856;28;20024;-69
2023/12/31 09:55:18;;;;;;;6.82;2.47;;;9.40;99.90;;;;;;5074108;28;20162;-68
2023/12/31 09:57:46;;;;;;;6.88;2.58;;;9.50;99.90;;;;;;5085253;28;20012;-69
2023/12/31 10:00:12;;;;;;;7.05;2.50;;;9.50;99.90;;;;;;5084720;28;20047;-68
2023/12/31 10:02:38;;;;;;;5.47;2.40;;;9.60;99.90;;;;;;5084317;28;20058;-68
2023/12/31 10:05:09;;;;;;;7.35;2.33;;;9.60;99.90;;;;;;5079841;28;20104;-68
2023/12/31 10:07:35;;;;;;;6.20;2.25;;;9.70;99.90;;;;;;5079587;28;20024;-68
2023/12/31 10:10:02;;;;;;;6.53;2.40;;;9.70;99.90;;;;;;5080583;28;20020;-68
2023/12/31 10:12:29;;;;;;;6.50;2.20;;;9.80;99.90;;;;;;5075412;28;20025;-68
2023/12/31 10:14:55;;;;;;;7.03;2.70;;;9.80;99.90;;;;;;5079600;28;20040;-68
2023/12/31 10:17:21;;;;;;;7.50;2.92;;;9.90;99.90;;;;;;5071932;28;20082;-68
2023/12/31 10:19:46;;;;;;;6.85;2.83;;;9.90;99.90;;;;;;5081445;28;20085;-68
2023/12/31 10:22:15;;;;;;;7.75;2.92;;;9.90;99.90;;;;;;5075871;28;20459;-69
2023/12/31 10:24:41;;;;;;;7.65;3.03;;;9.90;99.90;;;;;;5072161;28;20031;-68
2023/12/31 10:27:08;;;;;;;7.43;2.85;;;10.00;99.90;;;;;;5075662;28;20031;-69
2023/12/31 10:29:35;;;;;;;6.90;2.90;;;10.50;99.90;;;;;;5080213;28;20035;-68
2023/12/31 10:32:02;;;;;;;7.03;2.65;;;10.80;99.90;;;;;;5072308;28;20059;-69
2023/12/31 10:34:28;;;;;;;6.20;2.15;;;10.90;99.90;;;;;;5077793;28;20034;-68
2023/12/31 10:37:03;;;;;;;6.60;2.25;;;11.00;99.90;;;;;;5079742;28;20028;-68
2023/12/31 10:39:31;;;;;;;6.75;2.40;;;11.00;99.90;;;;;;5075500;28;20451;-68
2023/12/31 10:42:04;;;;;;;7.65;2.40;;;11.20;99.90;;;;;;5072406;28;20119;-68
2023/12/31 10:44:37;;;;;;;7.95;2.70;;;11.20;99.90;;;;;;5072924;28;20661;-68
2023/12/31 10:47:04;;;;;;;6.93;2.63;;;11.10;99.90;;;;;;5076090;28;20443;-68
2023/12/31 10:49:32;;;;;;;8.30;2.97;;;11.10;99.90;;;;;;5071777;28;20025;-69
2023/12/31 10:52:00;;;;;;;7.05;2.70;;;11.20;99.90;;;;;;5070962;28;20353;-69
2023/12/31 10:54:37;;;;;;;7.82;2.55;;;11.30;99.90;;;;;;5072629;28;20089;-68
2023/12/31 10:57:06;;;;;;;5.95;2.55;;;11.30;99.90;;;;;;5072569;28;20046;-68
2023/12/31 10:59:34;;;;;;;7.75;2.60;;;11.20;99.90;;;;;;5073760;28;20025;-69
2023/12/31 11:02:01;;;;;;;6.47;2.38;;;11.10;99.90;;;;;;5072044;28;20048;-69
2023/12/31 11:04:29;;;;;;;7.22;2.78;;;11.40;99.90;;;;;;5074788;28;20541;-68
2023/12/31 11:06:55;;;;;;;7.00;2.13;;;11.60;99.90;;;;;;5076589;28;20077;-68
2023/12/31 11:09:21;;;;;;;9.75;2.85;;;11.30;99.90;;;;;;5082506;28;20025;-68
2023/12/31 11:11:49;;;;;;;7.15;2.63;;;11.10;99.90;;;;;;5073317;28;20493;-68
2023/12/31 11:14:16;;;;;;;6.15;2.53;;;10.90;99.90;;;;;;5081973;28;20074;-68
2023/12/31 11:17:14;;;;;;;5.43;1.85;;;10.80;99.90;;;;;;5079234;28;20024;-69
2023/12/31 11:20:13;;;;;;;6.95;2.30;;;10.80;99.90;;;;;;5073636;28;20055;-68
2023/12/31 11:23:08;;;;;;;6.23;2.20;;;10.90;99.90;;;;;;5076551;28;20035;-68
2023/12/31 11:25:36;;;;;;;6.68;2.47;;;10.80;99.90;;;;;;5078157;28;20028;-68
2023/12/31 11:28:02;;;;;;;6.97;2.58;;;10.80;99.90;;;;;;5080707;28;20020;-68
2023/12/31 11:30:55;;;;;;;7.50;2.60;;;10.80;99.90;;;;;;5077584;28;20027;-68
2023/12/31 11:33:34;;;;;;;6.18;2.13;;;10.70;99.90;;;;;;5075855;28;20119;-68
2023/12/31 11:36:05;;;;;;;6.28;1.90;;;10.60;99.90;;;;;;5077631;28;20104;-68
2023/12/31 11:39:00;;;;;;;6.10;2.10;;;10.60;99.90;;;;;;5075357;28;20032;-68
2023/12/31 11:41:31;;;;;;;6.03;2.03;;;10.50;99.90;;;;;;5071885;28;20101;-68
2023/12/31 11:43:57;;;;;;;6.10;2.20;;;10.50;99.90;;;;;;5081316;28;20107;-68
2023/12/31 11:46:39;;;;;;;5.38;1.95;;;10.50;99.90;;;;;;5078425;28;20116;-68
2023/12/31 11:49:12;;;;;;;5.68;2.00;;;10.50;99.90;;;;;;5078416;28;20060;-68
2023/12/31 11:51:58;;;;;;;7.75;2.25;;;10.50;99.90;;;;;;5084774;28;20053;-68
2023/12/31 11:54:37;;;;;;;6.03;2.13;;;10.50;99.90;;;;;;5078454;28;20020;-68
2023/12/31 11:57:03;;;;;;;4.35;1.60;;;10.50;99.90;;;;;;5073961;28;20116;-69
2023/12/31 11:59:33;;;;;;;4.93;1.73;;;10.40;99.90;;;;;;5077830;28;20391;-68
2023/12/31 12:02:00;;;;;;;4.60;1.73;;;10.30;99.90;;;;;;5077224;28;20036;-69
2023/12/31 12:04:26;;;;;;;4.63;1.52;;;10.20;99.90;;;;;;5081254;28;20456;-68
2023/12/31 12:06:52;;;;;;;5.63;1.40;;;10.20;99.90;;;;;;5083441;28;20108;-68
2023/12/31 12:09:21;;;;;;;4.32;1.25;;;10.20;99.90;;;;;;5077193;28;20016;-68
2023/12/31 12:11:47;;;;;;;3.65;1.10;;;10.20;99.90;;;;;;5082413;28;20024;-68
2023/12/31 12:14:13;;;;;;;2.35;0.95;;;10.10;99.90;;;;;;5080811;28;20032;-68
2023/12/31 12:16:40;;;;;;;3.10;0.90;;;10.00;99.90;;;;;;5076438;28;20020;-68
2023/12/31 12:19:05;;;;;;;2.15;0.90;;;9.90;99.90;;;;;;5078239;28;20440;-68
2023/12/31 12:21:32;;;;;;;1.83;0.80;;;9.90;99.90;;;;;;5079653;28;20025;-68
2023/12/31 12:23:57;;;;;;;2.33;0.75;;;9.80;99.90;;;;;;5079963;28;20039;-68
2023/12/31 12:26:23;;;;;;;1.67;0.75;;;9.80;99.90;;;;;;5083860;28;20020;-68
2023/12/31 12:28:55;;;;;;;3.72;0.80;;;9.80;99.90;;;;;;5079967;28;20020;-68
2023/12/31 12:31:21;;;;;;;2.08;0.85;;;9.60;99.90;;;;;;5078905;28;20028;-68
2023/12/31 12:33:53;;;;;;;2.58;0.90;;;9.50;99.90;;;;;;5080216;28;20028;-68
2023/12/31 12:36:19;;;;;;;4.90;1.00;;;9.40;99.90;;;;;;5080950;28;20028;-68
2023/12/31 12:38:48;;;;;;;1.30;0.70;;;9.30;99.90;;;;;;5078959;28;20036;-68
2023/12/31 12:41:20;;;;;;;2.08;0.80;;;9.30;99.90;;;;;;5082477;28;20162;-67
2023/12/31 12:43:45;;;;;;;6.72;0.93;;;9.30;99.90;;;;;;5079356;28;20039;-68
2023/12/31 12:46:11;;;;;;;2.88;1.10;;;9.30;99.90;;;;;;5082730;28;20152;-68
2023/12/31 12:48:47;;;;;;;4.10;1.10;;;9.40;99.90;;;;;;5079542;28;20016;-68
2023/12/31 12:51:13;;;;;;;2.45;1.00;;;9.40;99.90;;;;;;5072596;28;20471;-68
2023/12/31 12:53:39;;;;;;;2.42;0.90;;;9.40;99.90;;;;;;5076221;28;20036;-68